Terminal Aerodrome Forecast
Issued by NWS

Home | Current Version | Previous Version | Text Only | Print | Product List | Glossary On
Versions: 1 2 3 4 5 6 7 8 9 10 11 12 13 14 15 16 17 18 19 20 21 22 23 24 25 26 27 28 29 30 31 32 33 34 35 36 37 38 39 40 41 42 43 44 45
000
FTAK31 PANC 031121
TAFADL
TAF
PADL 031121Z 0312/0412 18015KT 2SM -SHRA BR OVC006
      TEMPO 0312/0316 1SM -SHRA BR OVC004
     FM032100 17009KT 5SM BR VCSH SCT006 OVC012
      AMD LTD TO CLD VIS AND WIND TIL 031600=

USA.gov is the U.S. government's official web portal to all federal, state and local government web resources and services.